sensor_id;sensor_type;location;lat;lon;timestamp;P1;durP1;ratioP1;P2;durP2;ratioP2
38190;SDS011;25191;47.510;19.124;2023-05-10T00:03:41;2.45;;;1.60;;
38190;SDS011;25191;47.510;19.124;2023-05-10T00:23:41;1.95;;;1.60;;
38190;SDS011;25191;47.510;19.124;2023-05-10T00:43:42;3.70;;;1.10;;
38190;SDS011;25191;47.510;19.124;2023-05-10T01:03:42;1.88;;;1.40;;
38190;SDS011;25191;47.510;19.124;2023-05-10T01:44:49;2.50;;;1.20;;
38190;SDS011;25191;47.510;19.124;2023-05-10T02:04:49;3.40;;;1.40;;
38190;SDS011;25191;47.510;19.124;2023-05-10T02:24:51;1.73;;;1.05;;
38190;SDS011;25191;47.510;19.124;2023-05-10T02:44:55;1.58;;;1.13;;
38190;SDS011;25191;47.510;19.124;2023-05-10T03:05:00;1.65;;;1.20;;
38190;SDS011;25191;47.510;19.124;2023-05-10T03:25:04;1.20;;;1.10;;
38190;SDS011;25191;47.510;19.124;2023-05-10T03:45:08;1.23;;;1.13;;
38190;SDS011;25191;47.510;19.124;2023-05-10T04:05:10;1.45;;;0.93;;
38190;SDS011;25191;47.510;19.124;2023-05-10T04:25:11;6.20;;;1.17;;
38190;SDS011;25191;47.510;19.124;2023-05-10T04:45:12;11.80;;;1.70;;
38190;SDS011;25191;47.510;19.124;2023-05-10T05:05:14;6.22;;;2.30;;
38190;SDS011;25191;47.510;19.124;2023-05-10T05:25:15;4.95;;;2.03;;
38190;SDS011;25191;47.510;19.124;2023-05-10T05:45:16;4.88;;;2.03;;
38190;SDS011;25191;47.510;19.124;2023-05-10T06:05:17;5.13;;;1.65;;
38190;SDS011;25191;47.510;19.124;2023-05-10T06:25:18;3.25;;;1.55;;
38190;SDS011;25191;47.510;19.124;2023-05-10T06:45:25;2.95;;;2.00;;
38190;SDS011;25191;47.510;19.124;2023-05-10T07:05:26;6.07;;;2.72;;
38190;SDS011;25191;47.510;19.124;2023-05-10T07:25:27;4.70;;;2.50;;
38190;SDS011;25191;47.510;19.124;2023-05-10T07:45:29;5.50;;;2.65;;
38190;SDS011;25191;47.510;19.124;2023-05-10T08:05:29;6.70;;;3.13;;
38190;SDS011;25191;47.510;19.124;2023-05-10T08:25:30;2.60;;;2.40;;
38190;SDS011;25191;47.510;19.124;2023-05-10T08:45:33;4.30;;;2.42;;
38190;SDS011;25191;47.510;19.124;2023-05-10T09:05:38;3.42;;;2.30;;
38190;SDS011;25191;47.510;19.124;2023-05-10T09:25:41;3.08;;;2.10;;
38190;SDS011;25191;47.510;19.124;2023-05-10T09:45:48;4.20;;;2.20;;
38190;SDS011;25191;47.510;19.124;2023-05-10T10:05:50;4.78;;;2.28;;
38190;SDS011;25191;47.510;19.124;2023-05-10T10:25:52;2.28;;;2.08;;
38190;SDS011;25191;47.510;19.124;2023-05-10T11:06:30;6.20;;;1.85;;
38190;SDS011;25191;47.510;19.124;2023-05-10T11:26:35;2.35;;;1.80;;
38190;SDS011;25191;47.510;19.124;2023-05-10T11:46:37;2.00;;;1.80;;
38190;SDS011;25191;47.510;19.124;2023-05-10T12:06:39;1.88;;;1.60;;
38190;SDS011;25191;47.510;19.124;2023-05-10T12:26:41;1.55;;;1.45;;
38190;SDS011;25191;47.510;19.124;2023-05-10T12:46:48;3.65;;;1.70;;
38190;SDS011;25191;47.510;19.124;2023-05-10T13:06:48;1.83;;;1.50;;
38190;SDS011;25191;47.510;19.124;2023-05-10T13:26:49;3.72;;;1.48;;
38190;SDS011;25191;47.510;19.124;2023-05-10T13:46:52;1.67;;;1.23;;
38190;SDS011;25191;47.510;19.124;2023-05-10T14:06:53;1.73;;;1.33;;
38190;SDS011;25191;47.510;19.124;2023-05-10T14:26:53;4.97;;;1.50;;
38190;SDS011;25191;47.510;19.124;2023-05-10T14:46:54;4.28;;;1.40;;
38190;SDS011;25191;47.510;19.124;2023-05-10T15:06:56;1.73;;;1.38;;
38190;SDS011;25191;47.510;19.124;2023-05-10T15:26:59;1.95;;;1.23;;
38190;SDS011;25191;47.510;19.124;2023-05-10T15:47:00;2.25;;;1.33;;
38190;SDS011;25191;47.510;19.124;2023-05-10T16:07:04;3.40;;;1.20;;
38190;SDS011;25191;47.510;19.124;2023-05-10T16:27:05;2.60;;;1.08;;
38190;SDS011;25191;47.510;19.124;2023-05-10T16:47:07;3.88;;;1.42;;
38190;SDS011;25191;47.510;19.124;2023-05-10T17:07:13;2.58;;;1.50;;
38190;SDS011;25191;47.510;19.124;2023-05-10T17:27:14;5.85;;;1.70;;
38190;SDS011;25191;47.510;19.124;2023-05-10T17:47:16;4.18;;;1.70;;
38190;SDS011;25191;47.510;19.124;2023-05-10T18:07:17;6.60;;;1.50;;
38190;SDS011;25191;47.510;19.124;2023-05-10T18:27:19;3.25;;;1.60;;
38190;SDS011;25191;47.510;19.124;2023-05-10T18:47:21;5.10;;;1.77;;
38190;SDS011;25191;47.510;19.124;2023-05-10T19:07:21;2.72;;;1.50;;
38190;SDS011;25191;47.510;19.124;2023-05-10T19:27:22;3.85;;;1.85;;
38190;SDS011;25191;47.510;19.124;2023-05-10T19:47:29;4.47;;;1.60;;
38190;SDS011;25191;47.510;19.124;2023-05-10T20:07:30;2.78;;;1.50;;
38190;SDS011;25191;47.510;19.124;2023-05-10T20:27:30;2.80;;;1.38;;
38190;SDS011;25191;47.510;19.124;2023-05-10T20:47:31;2.72;;;1.48;;
38190;SDS011;25191;47.510;19.124;2023-05-10T21:07:32;1.90;;;1.52;;
38190;SDS011;25191;47.510;19.124;2023-05-10T21:27:33;2.15;;;1.30;;
38190;SDS011;25191;47.510;19.124;2023-05-10T21:47:35;1.80;;;1.30;;
38190;SDS011;25191;47.510;19.124;2023-05-10T22:07:36;2.47;;;1.65;;
38190;SDS011;25191;47.510;19.124;2023-05-10T22:27:36;2.28;;;1.30;;
38190;SDS011;25191;47.510;19.124;2023-05-10T22:47:37;1.20;;;1.10;;
38190;SDS011;25191;47.510;19.124;2023-05-10T23:07:38;1.38;;;1.27;;
38190;SDS011;25191;47.510;19.124;2023-05-10T23:27:38;2.33;;;1.33;;
38190;SDS011;25191;47.510;19.124;2023-05-10T23:47:39;2.13;;;1.30;;
